»·PEaware :: N7GL KHND-KVCV

N7GL :: KHND-KVCV

FLIGHT INFORMATION

Flight Status: Arrived
Operator: Privately registered:
United States
More flights under this callsign
Pilot: Georg L. (13308)
Aircraft: BEECH AIRCRAFT SUPER KING AIR 350
(B350)
More flights by this aircraft type
Origin: KHND Henderson
United States
Destination: KVCV Socal Logistics
United States
More flights between these airports :: More routes between these airports
Route: CRESO V538 GFS HEC SCCAT
File this flight plan on PilotEdge
Remarks:
Altitude:
(Current/Filed)
22,000ft
Speed:
(Current/Filed)
295kts
Departed: 06-Sep-20 10:32 AM
Arrived: 06-Sep-20 11:19 AM
Distance/Time
Traveled:
138nm/0:47
Distance/Time
To Go:
Arrived

Flight Plot

Page will automatically refresh every two minutes.

Flight plan parsing failed; only flown route is shown


Map Options




Map Legend


Flown Route
Filed Route
Departure Airport
Arrival Airport
Navaid (VOR, NDB)
Fix

Horizontal Profiles

Position Reports

Time Latitude Longitude Heading Altitude Ground
Speed
06-Sep-20 10:10 35.974751 -115.137947 0 2428ft 0kts
06-Sep-20 10:11 35.974751 -115.137947 0 2428ft 0kts
06-Sep-20 10:12 35.974751 -115.137947 0 2428ft 0kts
06-Sep-20 10:13 35.974751 -115.137947 0 2428ft 0kts
06-Sep-20 10:14 35.974751 -115.137947 0 2428ft 0kts
06-Sep-20 10:15 35.974751 -115.137947 359 2428ft 0kts
06-Sep-20 10:16 35.974751 -115.137947 0 2428ft 0kts
06-Sep-20 10:17 35.974751 -115.137947 0 2428ft 0kts
06-Sep-20 10:18 35.974751 -115.137947 0 2428ft 0kts
06-Sep-20 10:19 35.974751 -115.137947 0 2428ft 0kts
06-Sep-20 10:20 35.974751 -115.137947 0 2428ft 0kts
06-Sep-20 10:21 35.974834 -115.137943 341 2427ft 3kts
06-Sep-20 10:22 35.974426 -115.138041 87 2429ft 3kts
06-Sep-20 10:23 35.973460 -115.136427 178 2437ft 15kts
06-Sep-20 10:24 35.967713 -115.136474 178 2467ft 24kts
06-Sep-20 10:25 35.963121 -115.136311 100 2493ft 0kts
06-Sep-20 10:26 35.963121 -115.136310 100 2493ft 0kts
06-Sep-20 10:27 35.963121 -115.136310 100 2493ft 0kts
06-Sep-20 10:28 35.963121 -115.136310 100 2493ft 0kts
06-Sep-20 10:29 35.963121 -115.136310 100 2493ft 0kts
06-Sep-20 10:30 35.963616 -115.135532 0 2491ft 2kts
06-Sep-20 10:31 35.992589 -115.135917 353 3206ft 144kts
06-Sep-20 10:32 36.031295 -115.141579 65 3949ft 186kts
06-Sep-20 10:33 35.996878 -115.114870 191 4913ft 195kts
06-Sep-20 10:34 35.943312 -115.126357 191 6162ft 196kts
06-Sep-20 10:35 35.889357 -115.137676 191 7282ft 199kts
06-Sep-20 10:36 35.835701 -115.148851 191 8543ft 190kts
06-Sep-20 10:37 35.785008 -115.158270 183 9897ft 181kts
06-Sep-20 10:38 35.734670 -115.159051 181 11157ft 184kts
06-Sep-20 10:39 35.683577 -115.160436 181 12547ft 186kts
06-Sep-20 10:40 35.631885 -115.161941 180 13943ft 187kts
06-Sep-20 10:41 35.579173 -115.163463 180 15254ft 191kts
06-Sep-20 10:42 35.525338 -115.165018 179 16422ft 198kts
06-Sep-20 10:43 35.469170 -115.166670 178 17299ft 203kts
06-Sep-20 10:44 35.412764 -115.168254 178 18271ft 203kts
06-Sep-20 10:45 35.355746 -115.169867 178 19282ft 205kts
06-Sep-20 10:46 35.298705 -115.171497 178 20208ft 206kts
06-Sep-20 10:47 35.241191 -115.173146 178 21160ft 208kts
06-Sep-20 10:48 35.183321 -115.174797 178 22075ft 212kts
06-Sep-20 10:49 35.126616 -115.200753 237 22076ft 244kts
06-Sep-20 10:50 35.104436 -115.281461 253 22067ft 255kts
06-Sep-20 10:51 35.083222 -115.365530 252 22067ft 263kts
06-Sep-20 10:52 35.061285 -115.451669 252 22066ft 268kts
06-Sep-20 10:53 35.038933 -115.538962 252 22066ft 271kts
06-Sep-20 10:54 35.016239 -115.627226 252 22065ft 274kts
06-Sep-20 10:55 34.994023 -115.713306 252 22063ft 275kts
06-Sep-20 10:56 34.970970 -115.802297 252 22063ft 275kts
06-Sep-20 10:57 34.947879 -115.891130 252 22063ft 275kts
06-Sep-20 10:58 34.924757 -115.979756 252 22157ft 273kts
06-Sep-20 10:59 34.901581 -116.068293 251 22160ft 275kts
06-Sep-20 11:00 34.880130 -116.150022 251 22188ft 275kts
06-Sep-20 11:01 34.856788 -116.238612 251 22144ft 278kts
06-Sep-20 11:02 34.831219 -116.335879 251 20721ft 319kts
06-Sep-20 11:03 34.803642 -116.440963 251 19103ft 338kts
06-Sep-20 11:04 34.797908 -116.555863 270 17435ft 344kts
06-Sep-20 11:05 34.798713 -116.664596 269 15847ft 338kts
06-Sep-20 11:06 34.799099 -116.766855 270 14299ft 329kts
06-Sep-20 11:07 34.799050 -116.874806 269 13989ft 310kts
06-Sep-20 11:08 34.799101 -116.980284 270 12141ft 308kts
06-Sep-20 11:09 34.799120 -117.081585 270 10125ft 291kts
06-Sep-20 11:10 34.799053 -117.178101 270 8116ft 280kts
06-Sep-20 11:11 34.805160 -117.267660 302 7005ft 240kts
06-Sep-20 11:12 34.838096 -117.335095 302 7016ft 229kts
06-Sep-20 11:13 34.817816 -117.398051 194 6122ft 252kts
06-Sep-20 11:14 34.760419 -117.389541 173 5999ft 177kts
06-Sep-20 11:15 34.708168 -117.387565 180 4658ft 187kts
06-Sep-20 11:16 34.664973 -117.387193 179 3618ft 122kts
06-Sep-20 11:17 34.632550 -117.386810 180 3054ft 112kts
06-Sep-20 11:18 34.610632 -117.386045 108 2831ft 15kts
06-Sep-20 11:19 34.608307 -117.384167 181 2838ft 21kts
06-Sep-20 11:20 34.601676 -117.384094 180 2848ft 25kts
06-Sep-20 11:21 34.594916 -117.383880 156 2860ft 20kts
06-Sep-20 11:22 34.590330 -117.378403 135 2871ft 23kts
06-Sep-20 11:23 34.588160 -117.376563 318 2878ft 0kts
06-Sep-20 11:24 34.588159 -117.376562 318 2878ft 0kts
06-Sep-20 11:25 34.588159 -117.376562 318 2878ft 0kts
06-Sep-20 11:26 34.588159 -117.376562 318 2878ft 0kts

Navigation Log

Ident Type
Flight plan parsing failed, navigation log unavailable